createdAt,value
2017-08-21T00:00:45.633Z,61.20
2017-08-21T00:03:12.532Z,61.70
2017-08-21T00:05:39.341Z,61.60
2017-08-21T00:08:06.133Z,61.40
2017-08-21T00:10:33.142Z,61.30
2017-08-21T00:12:59.419Z,61.30
2017-08-21T00:15:26.385Z,61.60
2017-08-21T00:17:53.675Z,61.40
2017-08-21T00:20:19.975Z,61.00
2017-08-21T00:22:46.273Z,61.30
2017-08-21T00:25:12.533Z,61.50
2017-08-21T00:27:39.252Z,61.80
2017-08-21T00:30:06.916Z,61.60
2017-08-21T00:32:34.179Z,61.60
2017-08-21T00:35:00.483Z,61.50
2017-08-21T00:37:27.179Z,61.70
2017-08-21T00:39:53.894Z,61.30
2017-08-21T00:42:20.793Z,61.30
2017-08-21T00:44:47.549Z,61.70
2017-08-21T00:47:13.851Z,62.20
2017-08-21T00:49:40.158Z,62.80
2017-08-21T00:52:07.395Z,62.90
2017-08-21T00:54:33.672Z,62.10
2017-08-21T00:57:00.733Z,62.40
2017-08-21T00:59:28.051Z,62.40
2017-08-21T01:01:55.303Z,62.60
2017-08-21T01:04:21.600Z,62.00
2017-08-21T01:06:47.878Z,63.10
2017-08-21T01:09:14.905Z,63.50
2017-08-21T01:11:42.639Z,63.50
2017-08-21T01:14:10.751Z,63.50
2017-08-21T01:16:37.618Z,63.50
2017-08-21T01:19:05.140Z,63.90
2017-08-21T01:21:31.426Z,63.90
2017-08-21T01:23:58.271Z,64.30
2017-08-21T01:26:25.086Z,63.80
2017-08-21T01:28:52.190Z,64.40
2017-08-21T01:31:18.472Z,64.30
2017-08-21T01:33:45.078Z,65.10
2017-08-21T01:36:13.053Z,63.40
2017-08-21T01:38:39.563Z,63.30
2017-08-21T01:41:07.481Z,63.20
2017-08-21T01:43:33.748Z,63.20
2017-08-21T01:46:01.004Z,65.30
2017-08-21T01:48:27.515Z,64.10
2017-08-21T01:50:54.602Z,64.50
2017-08-21T01:53:21.450Z,64.50
2017-08-21T01:55:47.718Z,63.90
2017-08-21T01:58:14.510Z,64.50
2017-08-21T02:00:42.853Z,64.30
2017-08-21T02:03:09.812Z,65.10
2017-08-21T02:05:37.155Z,65.30
2017-08-21T02:08:03.415Z,65.60
2017-08-21T02:10:29.838Z,64.60
2017-08-21T02:12:56.757Z,65.00
2017-08-21T02:15:24.030Z,65.00
2017-08-21T02:17:50.285Z,65.30
2017-08-21T02:20:17.092Z,65.70
2017-08-21T02:22:43.375Z,66.00
2017-08-21T02:25:10.413Z,65.90
2017-08-21T02:27:36.687Z,65.90
2017-08-21T02:30:03.937Z,65.80
2017-08-21T02:32:30.203Z,65.80
2017-08-21T02:34:56.462Z,64.90
2017-08-21T02:37:23.824Z,65.00
2017-08-21T02:39:51.485Z,64.60
2017-08-21T02:42:17.913Z,64.60
2017-08-21T02:44:46.186Z,65.00
2017-08-21T02:47:14.246Z,64.50
2017-08-21T02:49:41.524Z,64.50
2017-08-21T02:52:07.975Z,64.20
2017-08-21T02:54:34.328Z,64.60
2017-08-21T02:57:01.484Z,65.40
2017-08-21T02:59:28.423Z,64.90
2017-08-21T03:01:54.997Z,64.80
2017-08-21T03:04:22.007Z,65.40
2017-08-21T03:06:48.506Z,65.30
2017-08-21T03:09:15.961Z,64.90
2017-08-21T03:11:42.220Z,65.20
2017-08-21T03:14:09.448Z,65.40
2017-08-21T03:16:36.664Z,66.20
2017-08-21T03:19:04.956Z,65.20
2017-08-21T03:21:31.952Z,67.70
2017-08-21T03:23:58.218Z,67.60
2017-08-21T03:26:25.253Z,65.60
2017-08-21T03:28:52.024Z,65.60
2017-08-21T03:31:18.303Z,66.20
2017-08-21T03:33:44.908Z,67.00
2017-08-21T03:36:12.042Z,66.40
2017-08-21T03:38:38.365Z,66.20
2017-08-21T03:41:05.156Z,66.10
2017-08-21T03:43:31.451Z,66.40
2017-08-21T03:45:57.734Z,66.00
2017-08-21T03:48:24.891Z,65.80
2017-08-21T03:50:51.805Z,65.80
2017-08-21T03:53:18.064Z,65.70
2017-08-21T03:55:44.356Z,65.70
2017-08-21T03:58:11.145Z,65.70
2017-08-21T04:00:37.750Z,65.90
2017-08-21T04:03:04.550Z,65.80
2017-08-21T04:05:31.317Z,66.20
2017-08-21T04:07:58.652Z,68.20
2017-08-21T04:10:25.440Z,66.90
2017-08-21T04:12:52.570Z,66.30
2017-08-21T04:15:19.477Z,66.20
2017-08-21T04:17:45.711Z,66.10
2017-08-21T04:20:12.963Z,66.40
2017-08-21T04:22:40.030Z,66.70
2017-08-21T04:25:06.322Z,66.10
2017-08-21T04:27:32.587Z,66.60
2017-08-21T04:29:59.457Z,66.40
2017-08-21T04:32:26.511Z,66.70
2017-08-21T04:34:53.121Z,67.00
2017-08-21T04:37:20.595Z,66.90
2017-08-21T04:39:47.613Z,66.90
2017-08-21T04:42:14.497Z,66.90
2017-08-21T04:44:40.738Z,66.70
2017-08-21T04:47:08.476Z,66.90
2017-08-21T04:49:34.706Z,66.80
2017-08-21T04:52:01.288Z,67.30
2017-08-21T04:54:28.559Z,67.90
2017-08-21T04:56:55.795Z,67.90
2017-08-21T04:59:22.346Z,68.10
2017-08-21T05:01:48.845Z,68.00
2017-08-21T05:04:16.522Z,67.80
2017-08-21T05:06:43.316Z,67.80
2017-08-21T05:09:10.280Z,67.60
2017-08-21T05:11:37.286Z,67.40
2017-08-21T05:14:03.583Z,67.00
2017-08-21T05:16:29.848Z,66.20
2017-08-21T05:18:56.746Z,66.70
2017-08-21T05:21:23.854Z,66.40
2017-08-21T05:23:50.788Z,67.00
2017-08-21T05:26:18.082Z,66.70
2017-08-21T05:28:45.099Z,65.00
2017-08-21T05:31:11.697Z,65.00
2017-08-21T05:33:38.661Z,65.30
2017-08-21T05:36:05.156Z,65.90
2017-08-21T05:38:31.524Z,65.30
2017-08-21T05:40:57.814Z,64.00
2017-08-21T05:43:24.596Z,64.40
2017-08-21T05:45:50.873Z,63.20
2017-08-21T05:48:17.924Z,61.80
2017-08-21T05:50:44.209Z,61.80
2017-08-21T05:53:10.496Z,61.20
2017-08-21T05:55:37.790Z,62.40
2017-08-21T05:58:04.262Z,61.50
2017-08-21T06:00:31.645Z,61.70
2017-08-21T06:02:58.739Z,62.50
2017-08-21T06:05:25.558Z,59.70
2017-08-21T06:07:52.178Z,60.20
2017-08-21T06:10:19.164Z,60.00
2017-08-21T06:12:45.440Z,60.80
2017-08-21T06:15:12.428Z,60.70
2017-08-21T06:17:39.668Z,60.60
2017-08-21T06:20:06.833Z,60.60
2017-08-21T06:22:33.804Z,60.30
2017-08-21T06:25:01.528Z,60.60
2017-08-21T06:27:27.796Z,60.50
2017-08-21T06:29:55.702Z,59.30
2017-08-21T06:32:22.130Z,59.30
2017-08-21T06:34:48.416Z,59.90
2017-08-21T06:37:14.713Z,57.80
2017-08-21T06:39:40.966Z,57.60
2017-08-21T06:42:07.263Z,55.80
2017-08-21T06:44:33.577Z,53.70
2017-08-21T06:46:59.914Z,55.10
2017-08-21T06:49:27.045Z,56.40
2017-08-21T06:51:56.384Z,57.20
2017-08-21T06:54:22.788Z,57.80
2017-08-21T06:56:49.086Z,57.70
2017-08-21T06:59:15.514Z,57.20
2017-08-21T07:01:42.333Z,56.90
2017-08-21T07:04:08.808Z,57.40
2017-08-21T07:06:35.580Z,54.90
2017-08-21T07:09:01.864Z,54.00
2017-08-21T07:11:29.473Z,54.80
2017-08-21T07:13:56.283Z,54.10
2017-08-21T07:16:22.684Z,53.10
2017-08-21T07:18:49.321Z,53.40
2017-08-21T07:21:15.601Z,54.60
2017-08-21T07:23:41.895Z,53.40
2017-08-21T07:26:08.935Z,52.40
2017-08-21T07:28:35.975Z,53.00
2017-08-21T07:31:02.288Z,52.60
2017-08-21T07:33:28.580Z,52.90
2017-08-21T07:35:55.078Z,52.30
2017-08-21T07:38:22.149Z,53.90
2017-08-21T07:40:48.525Z,53.40
2017-08-21T07:43:14.826Z,54.20
2017-08-21T07:45:41.906Z,52.50
2017-08-21T07:48:08.208Z,52.70
2017-08-21T07:50:34.456Z,52.50
2017-08-21T07:53:01.203Z,53.70
2017-08-21T07:55:27.533Z,54.30
2017-08-21T07:57:54.075Z,53.80
2017-08-21T08:00:21.003Z,53.60
2017-08-21T08:02:47.589Z,53.10
2017-08-21T08:05:14.540Z,52.60
2017-08-21T08:07:40.790Z,52.20
2017-08-21T08:10:07.798Z,51.50
2017-08-21T08:12:34.852Z,51.70
2017-08-21T08:15:01.685Z,51.70
2017-08-21T08:17:28.820Z,52.10
2017-08-21T08:19:55.107Z,52.00
2017-08-21T08:22:22.861Z,51.90
2017-08-21T08:24:49.910Z,52.20
2017-08-21T08:27:16.178Z,51.40
2017-08-21T08:29:42.456Z,51.40
2017-08-21T08:32:09.005Z,51.70
2017-08-21T08:34:36.093Z,50.60
2017-08-21T08:37:02.813Z,50.50
2017-08-21T08:39:29.134Z,50.20
2017-08-21T08:41:55.367Z,49.50
2017-08-21T08:44:22.192Z,49.30
2017-08-21T08:46:49.212Z,49.40
2017-08-21T08:49:17.204Z,50.80
2017-08-21T08:51:43.493Z,50.80
2017-08-21T08:54:10.740Z,50.20
2017-08-21T08:56:38.032Z,49.70
2017-08-21T08:59:04.272Z,48.80
2017-08-21T09:01:30.564Z,49.10
2017-08-21T09:03:57.597Z,48.90
2017-08-21T09:06:24.874Z,48.90
2017-08-21T09:08:51.905Z,48.50
2017-08-21T09:11:18.686Z,48.40
2017-08-21T09:13:45.047Z,49.60
2017-08-21T09:16:11.951Z,49.60
2017-08-21T09:18:38.250Z,48.90
2017-08-21T09:21:05.532Z,48.90
2017-08-21T09:23:32.074Z,47.30
2017-08-21T09:25:58.310Z,46.30
2017-08-21T09:28:24.581Z,47.20
2017-08-21T09:30:50.831Z,45.50
2017-08-21T09:33:17.884Z,46.70
2017-08-21T09:35:44.143Z,46.60
2017-08-21T09:38:10.424Z,45.60
2017-08-21T09:40:36.974Z,45.90
2017-08-21T09:43:03.939Z,44.90
2017-08-21T09:45:31.206Z,43.50
2017-08-21T09:47:58.489Z,44.10
2017-08-21T09:50:24.885Z,45.20
2017-08-21T09:52:51.154Z,43.00
2017-08-21T09:55:17.874Z,43.50
2017-08-21T09:57:45.526Z,44.60
2017-08-21T10:00:12.513Z,44.50
2017-08-21T10:02:39.121Z,43.30
2017-08-21T10:05:05.977Z,42.70
2017-08-21T10:07:32.865Z,42.00
2017-08-21T10:09:59.872Z,42.20
2017-08-21T10:12:26.675Z,42.20
2017-08-21T10:15:24.509Z,43.50
2017-08-21T10:17:50.940Z,42.10
2017-08-21T10:20:17.320Z,42.20
2017-08-21T10:22:44.034Z,41.90
2017-08-21T10:25:10.299Z,41.80
2017-08-21T10:27:36.559Z,42.30
2017-08-21T10:30:03.443Z,41.40
2017-08-21T10:32:30.440Z,40.50
2017-08-21T10:34:56.764Z,39.80
2017-08-21T10:37:23.067Z,39.60
2017-08-21T10:39:49.384Z,40.10
2017-08-21T10:42:16.162Z,39.50
2017-08-21T10:44:42.982Z,40.00
2017-08-21T10:47:09.412Z,40.20
2017-08-21T10:49:36.787Z,41.20
2017-08-21T10:52:03.092Z,39.30
2017-08-21T10:54:29.583Z,39.60
2017-08-21T10:56:55.857Z,39.80
2017-08-21T10:59:22.153Z,40.80
2017-08-21T11:01:49.054Z,40.70
2017-08-21T11:04:15.345Z,40.60
2017-08-21T11:06:42.628Z,41.20
2017-08-21T11:09:09.513Z,42.20
2017-08-21T11:11:36.400Z,39.60
2017-08-21T11:14:02.652Z,39.30
2017-08-21T11:16:29.930Z,40.10
2017-08-21T11:18:56.236Z,40.30
2017-08-21T11:21:22.559Z,39.30
2017-08-21T11:23:48.872Z,39.60
2017-08-21T11:26:15.148Z,39.60
2017-08-21T11:28:41.463Z,38.90
2017-08-21T11:31:08.290Z,38.90
2017-08-21T11:33:35.901Z,40.00
2017-08-21T11:36:03.193Z,38.60
2017-08-21T11:38:30.475Z,38.00
2017-08-21T11:40:57.263Z,38.90
2017-08-21T11:43:24.779Z,39.30
2017-08-21T11:45:51.053Z,38.10
2017-08-21T11:48:17.335Z,38.60
2017-08-21T11:50:44.145Z,38.00
2017-08-21T11:53:10.507Z,39.60
2017-08-21T11:55:38.093Z,38.50
2017-08-21T11:58:05.190Z,38.90
2017-08-21T12:00:31.734Z,38.90
2017-08-21T12:02:58.719Z,38.60
2017-08-21T12:05:26.193Z,38.80
2017-08-21T12:07:52.503Z,38.80
2017-08-21T12:10:18.763Z,39.10
2017-08-21T12:12:45.043Z,40.20
2017-08-21T12:15:11.885Z,40.90
2017-08-21T12:17:38.177Z,41.10
2017-08-21T12:20:05.430Z,38.60
2017-08-21T12:22:31.689Z,39.80
2017-08-21T12:24:57.981Z,39.70
2017-08-21T12:27:24.254Z,39.90
2017-08-21T12:29:50.576Z,40.20
2017-08-21T12:32:17.856Z,38.90
2017-08-21T12:34:44.145Z,40.10
2017-08-21T12:37:10.483Z,41.20
2017-08-21T12:39:36.818Z,40.80
2017-08-21T12:42:04.701Z,40.60
2017-08-21T12:44:30.956Z,41.20
2017-08-21T12:46:57.846Z,40.30
2017-08-21T12:49:25.029Z,41.40
2017-08-21T12:51:51.357Z,40.70
2017-08-21T12:54:17.675Z,41.00
2017-08-21T12:56:43.984Z,40.70
2017-08-21T12:59:10.431Z,39.80
2017-08-21T13:01:37.896Z,40.20
2017-08-21T13:04:04.385Z,41.30
2017-08-21T13:06:30.761Z,41.70
2017-08-21T13:08:57.700Z,41.60
2017-08-21T13:11:24.636Z,39.30
2017-08-21T13:13:51.411Z,40.10
2017-08-21T13:16:19.055Z,39.30
2017-08-21T13:18:46.142Z,39.20
2017-08-21T13:21:12.432Z,38.00
2017-08-21T13:23:38.685Z,36.70
2017-08-21T13:26:05.042Z,37.00
2017-08-21T13:28:31.408Z,35.60
2017-08-21T13:30:58.342Z,36.80
2017-08-21T13:33:25.323Z,37.50
2017-08-21T13:35:51.625Z,37.30
2017-08-21T13:38:18.966Z,38.10
2017-08-21T13:40:45.808Z,38.30
2017-08-21T13:43:12.490Z,38.00
2017-08-21T13:45:40.163Z,38.70
2017-08-21T13:48:07.801Z,38.70
2017-08-21T13:50:34.080Z,38.70
2017-08-21T13:53:01.360Z,37.60
2017-08-21T13:55:28.734Z,38.20
2017-08-21T13:57:55.658Z,37.20
2017-08-21T14:00:21.998Z,37.20
2017-08-21T14:02:48.288Z,36.20
2017-08-21T14:05:14.543Z,37.50
2017-08-21T14:07:42.231Z,37.10
2017-08-21T14:10:08.606Z,38.30
2017-08-21T14:12:34.924Z,37.90
2017-08-21T14:15:01.599Z,38.20
2017-08-21T14:17:29.311Z,38.60
2017-08-21T14:19:55.950Z,38.70
2017-08-21T14:22:22.730Z,39.60
2017-08-21T14:24:49.624Z,39.20
2017-08-21T14:27:17.140Z,40.00
2017-08-21T14:29:43.446Z,38.90
2017-08-21T14:32:10.243Z,38.50
2017-08-21T14:34:36.944Z,38.30
2017-08-21T14:37:03.906Z,37.10
2017-08-21T14:39:30.427Z,37.80
2017-08-21T14:41:57.072Z,38.30
2017-08-21T14:44:23.881Z,38.50
2017-08-21T14:46:50.203Z,38.40
2017-08-21T14:49:16.556Z,39.30
2017-08-21T14:51:43.692Z,37.90
2017-08-21T14:54:09.957Z,37.60
2017-08-21T14:56:36.246Z,38.50
2017-08-21T15:01:37.107Z,38.40
2017-08-21T15:04:03.427Z,38.00
2017-08-21T15:06:30.739Z,37.40
2017-08-21T15:08:57.039Z,38.00
2017-08-21T15:11:23.325Z,39.40
2017-08-21T15:13:49.602Z,39.00
2017-08-21T15:16:16.635Z,39.30
2017-08-21T15:18:43.568Z,39.60
2017-08-21T15:21:10.595Z,39.10
2017-08-21T15:23:37.079Z,38.60
2017-08-21T15:26:04.005Z,38.40
2017-08-21T15:28:31.284Z,38.30
2017-08-21T15:30:57.867Z,38.80
2017-08-21T15:33:25.137Z,39.50
2017-08-21T15:35:52.377Z,39.60
2017-08-21T15:38:19.571Z,40.00
2017-08-21T15:40:45.897Z,39.50
2017-08-21T15:43:12.185Z,39.10
2017-08-21T15:45:39.164Z,39.40
2017-08-21T15:48:06.414Z,40.20
2017-08-21T15:50:32.915Z,40.50
2017-08-21T15:52:59.181Z,40.10
2017-08-21T15:55:26.040Z,40.50
2017-08-21T15:57:52.373Z,40.40
2017-08-21T16:00:19.625Z,40.00
2017-08-21T16:02:46.026Z,39.70
2017-08-21T16:05:12.936Z,40.10
2017-08-21T16:07:39.258Z,40.70
2017-08-21T16:10:06.245Z,40.70
2017-08-21T16:12:33.265Z,41.60
2017-08-21T16:14:59.754Z,42.00
2017-08-21T16:17:26.624Z,40.80
2017-08-21T16:19:53.917Z,40.40
2017-08-21T16:22:21.270Z,40.70
2017-08-21T16:24:48.643Z,41.20
2017-08-21T16:27:15.650Z,40.80
2017-08-21T16:29:43.886Z,40.50
2017-08-21T16:32:10.507Z,41.20
2017-08-21T16:34:37.720Z,41.40
2017-08-21T16:37:04.492Z,41.90
2017-08-21T16:39:31.324Z,41.40
2017-08-21T16:41:57.603Z,42.10
2017-08-21T16:44:24.442Z,42.30
2017-08-21T16:46:52.537Z,42.60
2017-08-21T16:49:18.942Z,42.20
2017-08-21T16:51:46.324Z,42.20
2017-08-21T16:54:12.819Z,42.70
2017-08-21T16:56:40.880Z,43.60
2017-08-21T16:59:08.156Z,44.50
2017-08-21T17:01:36.204Z,44.60
2017-08-21T17:04:02.701Z,44.60
2017-08-21T17:06:29.142Z,45.30
2017-08-21T17:08:56.142Z,44.00
2017-08-21T17:11:22.472Z,44.50
2017-08-21T17:13:48.748Z,44.80
2017-08-21T17:16:16.044Z,44.90
2017-08-21T17:18:42.536Z,45.00
2017-08-21T17:21:08.886Z,46.70
2017-08-21T17:23:35.958Z,46.50
2017-08-21T17:26:03.214Z,47.70
2017-08-21T17:28:30.058Z,49.10
2017-08-21T17:30:57.509Z,49.80
2017-08-21T17:33:25.193Z,51.60
2017-08-21T17:35:51.508Z,51.60
2017-08-21T17:38:17.792Z,51.60
2017-08-21T17:40:44.538Z,52.00
2017-08-21T17:43:10.947Z,52.10
2017-08-21T17:45:37.219Z,53.10
2017-08-21T17:48:03.952Z,53.40
2017-08-21T17:50:30.393Z,53.20
2017-08-21T17:52:57.583Z,53.60
2017-08-21T17:55:24.541Z,53.40
2017-08-21T17:57:51.342Z,54.20
2017-08-21T18:00:17.634Z,53.20
2017-08-21T18:02:43.908Z,52.10
2017-08-21T18:05:10.819Z,52.50
2017-08-21T18:07:37.347Z,52.90
2017-08-21T18:10:03.678Z,51.50
2017-08-21T18:12:29.950Z,53.60
2017-08-21T18:14:56.386Z,52.70
2017-08-21T18:17:22.823Z,52.80
2017-08-21T18:19:50.696Z,54.80
2017-08-21T18:22:16.989Z,54.80
2017-08-21T18:24:43.365Z,55.90
2017-08-21T18:27:09.646Z,56.40
2017-08-21T18:29:35.969Z,57.10
2017-08-21T18:32:02.503Z,56.70
2017-08-21T18:34:28.791Z,56.80
2017-08-21T18:36:55.052Z,55.80
2017-08-21T18:39:24.149Z,57.30
2017-08-21T18:41:50.429Z,57.20
2017-08-21T18:44:16.979Z,55.50
2017-08-21T18:46:44.848Z,55.80
2017-08-21T18:49:11.195Z,57.60
2017-08-21T18:51:42.874Z,57.30
2017-08-21T18:54:10.070Z,58.00
2017-08-21T18:56:39.092Z,57.30
2017-08-21T18:59:06.104Z,58.00
2017-08-21T19:01:32.686Z,58.00
2017-08-21T19:03:59.538Z,57.50
2017-08-21T19:06:26.157Z,56.90
2017-08-21T19:08:53.053Z,57.30
2017-08-21T19:11:20.768Z,57.90
2017-08-21T19:13:47.321Z,58.20
2017-08-21T19:16:14.491Z,59.00
2017-08-21T19:18:40.852Z,58.90
2017-08-21T19:21:07.543Z,59.30
2017-08-21T19:23:35.358Z,58.50
2017-08-21T19:26:01.636Z,58.70
2017-08-21T19:28:27.937Z,59.10
2017-08-21T19:30:55.424Z,59.20
2017-08-21T19:33:23.345Z,58.90
2017-08-21T19:35:50.246Z,59.40
2017-08-21T19:38:17.562Z,60.30
2017-08-21T19:40:45.100Z,59.60
2017-08-21T19:43:11.448Z,60.70
2017-08-21T19:45:38.251Z,59.90
2017-08-21T19:48:04.793Z,60.50
2017-08-21T19:50:31.693Z,60.50
2017-08-21T19:52:57.994Z,60.20
2017-08-21T19:55:25.199Z,60.00
2017-08-21T19:57:51.906Z,60.70
2017-08-21T20:00:18.298Z,61.20
2017-08-21T20:02:44.681Z,61.00
2017-08-21T20:05:10.964Z,61.50
2017-08-21T20:07:38.012Z,60.40
2017-08-21T20:10:04.677Z,60.40
2017-08-21T20:12:31.020Z,60.20
2017-08-21T20:14:57.773Z,60.10
2017-08-21T20:17:24.226Z,59.60
2017-08-21T20:19:50.523Z,59.90
2017-08-21T20:22:17.768Z,60.20
2017-08-21T20:24:44.257Z,58.80
2017-08-21T20:27:10.592Z,59.70
2017-08-21T20:29:36.902Z,59.30
2017-08-21T20:32:03.773Z,59.90
2017-08-21T20:34:30.127Z,61.10
2017-08-21T20:36:56.472Z,60.90
2017-08-21T20:39:22.926Z,59.70
2017-08-21T20:41:50.567Z,60.50
2017-08-21T20:44:17.876Z,60.50
2017-08-21T20:46:44.486Z,60.30
2017-08-21T20:49:11.391Z,59.70
2017-08-21T20:51:37.698Z,60.00
2017-08-21T20:54:04.950Z,60.70
2017-08-21T20:56:31.262Z,60.90
2017-08-21T20:58:57.906Z,59.10
2017-08-21T21:01:24.178Z,60.20
2017-08-21T21:03:50.775Z,59.60
2017-08-21T21:06:17.041Z,58.90
2017-08-21T21:08:43.357Z,59.30
2017-08-21T21:11:10.341Z,59.20
2017-08-21T21:13:36.888Z,59.40
2017-08-21T21:16:03.590Z,59.20
2017-08-21T21:18:30.402Z,59.30
2017-08-21T21:20:56.784Z,60.40
2017-08-21T21:23:23.654Z,59.90
2017-08-21T21:25:49.963Z,60.60
2017-08-21T21:28:16.257Z,60.40
2017-08-21T21:30:42.505Z,60.20
2017-08-21T21:33:09.187Z,59.40
2017-08-21T21:35:35.540Z,59.60
2017-08-21T21:38:02.857Z,60.60
2017-08-21T21:40:29.198Z,60.40
2017-08-21T21:42:55.460Z,59.50
2017-08-21T21:45:21.745Z,59.80
2017-08-21T21:47:48.462Z,59.80
2017-08-21T21:50:15.611Z,59.60
2017-08-21T21:52:41.928Z,59.60
2017-08-21T21:55:09.231Z,59.30
2017-08-21T21:57:35.869Z,59.80
2017-08-21T22:00:02.963Z,60.10
2017-08-21T22:02:29.365Z,60.40
2017-08-21T22:04:55.688Z,60.00
2017-08-21T22:07:21.948Z,60.40
2017-08-21T22:09:48.809Z,60.20
2017-08-21T22:12:15.072Z,62.40
2017-08-21T22:14:41.892Z,62.60
2017-08-21T22:17:08.151Z,60.60
2017-08-21T22:19:34.424Z,64.00
2017-08-21T22:22:00.730Z,61.20
2017-08-21T22:24:27.000Z,61.40
2017-08-21T22:26:54.277Z,61.20
2017-08-21T22:29:21.836Z,61.70
2017-08-21T22:31:48.728Z,60.80
2017-08-21T22:34:14.984Z,61.80
2017-08-21T22:36:41.284Z,61.70
2017-08-21T22:39:07.633Z,63.50
2017-08-21T22:41:33.879Z,63.20
2017-08-21T22:44:02.150Z,61.90
2017-08-21T22:46:28.967Z,61.90
2017-08-21T22:48:55.866Z,62.20
2017-08-21T22:51:22.677Z,63.60
2017-08-21T22:53:49.904Z,62.70
2017-08-21T22:56:17.111Z,62.20
2017-08-21T22:58:44.727Z,62.40
2017-08-21T23:01:11.028Z,63.10
2017-08-21T23:03:39.095Z,63.00
2017-08-21T23:06:06.183Z,62.60
2017-08-21T23:08:32.600Z,62.60
2017-08-21T23:10:59.863Z,62.60
2017-08-21T23:13:26.800Z,62.10
2017-08-21T23:15:53.130Z,61.90
2017-08-21T23:18:20.565Z,62.90
2017-08-21T23:20:47.720Z,64.00
2017-08-21T23:23:14.585Z,63.40
2017-08-21T23:25:40.851Z,64.30
2017-08-21T23:28:07.160Z,63.10
2017-08-21T23:30:33.718Z,62.50
2017-08-21T23:33:01.227Z,62.40
2017-08-21T23:35:27.518Z,62.20
2017-08-21T23:37:54.781Z,62.60
2017-08-21T23:40:21.069Z,63.80
2017-08-21T23:42:47.963Z,63.90
2017-08-21T23:45:15.806Z,63.80
2017-08-21T23:47:42.824Z,63.50
2017-08-21T23:50:10.095Z,64.00
2017-08-21T23:52:36.380Z,63.20
2017-08-21T23:55:04.200Z,62.60
2017-08-21T23:57:30.755Z,64.70
2017-08-21T23:59:57.810Z,64.50
